Time;durP1;ratioP1;P1;durP2;ratioP2;P2;SDS_P1;SDS_P2;PMS_P1;PMS_P2;Temp;Humidity;BMP_temperature;BMP_pressure;BME280_temperature;BME280_humidity;BME280_pressure;Samples;Min_cycle;Max_cycle;Signal;HPM_P1;HPM_P2
2021/01/29 00:00:54;;;;;;;2.42;0.73;;;;;;;9.23;85.28;98797.38;10305227;28;20113;-72
2021/01/29 00:06:02;;;;;;;2.03;0.90;;;;;;;9.26;84.78;98783.81;10302880;28;20425;-72
2021/01/29 00:11:04;;;;;;;2.72;0.90;;;;;;;9.28;84.33;98777.38;10308919;28;20054;-71
2021/01/29 00:16:05;;;;;;;2.58;0.82;;;;;;;9.25;83.87;98771.50;10318670;28;20047;-71
2021/01/29 00:21:07;;;;;;;3.55;0.70;;;;;;;9.24;84.19;98775.16;10305432;28;20058;-73
2021/01/29 00:26:08;;;;;;;5.70;1.42;;;;;;;9.30;83.99;98763.94;10312964;28;20058;-73
2021/01/29 00:31:09;;;;;;;4.13;1.52;;;;;;;9.35;83.50;98754.53;10338759;28;20059;-73
2021/01/29 00:36:11;;;;;;;4.82;1.88;;;;;;;9.34;82.87;98747.53;10305866;28;20110;-72
2021/01/29 00:41:12;;;;;;;6.15;2.88;;;;;;;9.38;81.68;98740.09;10320937;28;20054;-71
2021/01/29 00:46:13;;;;;;;6.32;3.35;;;;;;;9.36;81.28;98726.16;10342149;28;20057;-71
2021/01/29 00:51:15;;;;;;;5.22;3.15;;;;;;;9.38;81.27;98730.31;10336789;28;20252;-71
2021/01/29 00:56:16;;;;;;;4.53;2.47;;;;;;;9.37;80.65;98719.84;10306474;28;20142;-72
2021/01/29 01:01:18;;;;;;;5.43;2.38;;;;;;;9.42;80.04;98708.78;10301532;28;20098;-71
2021/01/29 01:06:19;;;;;;;2.30;1.70;;;;;;;9.50;79.62;98704.38;10307998;28;20051;-72
2021/01/29 01:11:20;;;;;;;2.38;1.42;;;;;;;9.53;79.82;98676.63;10300507;28;20109;-72
2021/01/29 01:16:21;;;;;;;3.92;1.73;;;;;;;9.55;79.66;98666.72;10308487;28;20054;-71
2021/01/29 01:21:23;;;;;;;5.05;1.55;;;;;;;9.57;79.55;98664.72;10309366;28;20043;-70
2021/01/29 01:26:24;;;;;;;2.17;0.63;;;;;;;9.57;79.19;98663.91;10306011;28;20078;-71
2021/01/29 01:31:26;;;;;;;2.90;1.15;;;;;;;9.63;79.60;98668.59;10307471;28;20586;-71
2021/01/29 01:36:27;;;;;;;4.47;0.90;;;;;;;9.59;79.39;98661.91;10312385;28;20123;-71
2021/01/29 01:41:28;;;;;;;1.80;0.77;;;;;;;9.57;79.94;98667.38;10308817;28;20150;-72
2021/01/29 01:46:30;;;;;;;3.13;0.70;;;;;;;9.58;79.95;98650.44;10270935;23;20059;-66
2021/01/29 01:51:43;;;;;;;1.90;0.70;;;;;;;9.51;80.44;98615.69;10273913;28;20051;-66
2021/01/29 01:56:51;;;;;;;1.80;0.63;;;;;;;9.66;80.74;98625.75;10265503;28;20047;-66
2021/01/29 02:01:54;;;;;;;2.75;0.55;;;;;;;9.56;80.74;98593.97;10262360;28;20112;-66
2021/01/29 02:06:58;;;;;;;3.58;0.73;;;;;;;9.62;81.11;98592.50;10258950;28;20051;-66
2021/01/29 02:12:00;;;;;;;1.60;0.37;;;;;;;9.69;80.76;98580.28;10260964;28;20119;-67
2021/01/29 02:17:11;;;;;;;1.60;0.40;;;;;;;9.60;80.67;98562.63;10268263;28;20057;-67
2021/01/29 02:22:26;;;;;;;1.63;0.40;;;;;;;9.62;81.88;98555.31;10261725;28;20060;-66
2021/01/29 02:27:45;;;;;;;3.05;0.50;;;;;;;9.58;82.84;98543.34;10263871;28;20051;-67
2021/01/29 02:32:55;;;;;;;3.25;0.40;;;;;;;9.55;83.54;98534.72;10257807;28;20047;-67
2021/01/29 02:38:08;;;;;;;2.90;0.70;;;;;;;9.53;84.73;98515.47;10259708;28;20101;-66
2021/01/29 02:43:44;;;;;;;1.88;0.70;;;;;;;9.55;85.62;98505.50;10250545;28;20090;-66
2021/01/29 02:49:05;;;;;;;1.20;0.70;;;;;;;9.58;86.51;98480.44;10255398;28;20467;-65
2021/01/29 02:54:44;;;;;;;2.45;0.68;;;;;;;9.59;87.46;98460.00;10263784;28;20047;-66
2021/01/29 03:00:06;;;;;;;2.20;1.05;;;;;;;9.43;89.53;98445.69;10242398;28;20188;-66
2021/01/29 03:05:21;;;;;;;3.40;1.25;;;;;;;9.45;90.83;98432.25;10256200;28;20055;-66
2021/01/29 03:10:48;;;;;;;3.33;1.40;;;;;;;9.46;91.78;98418.81;10252153;28;20050;-66
2021/01/29 03:15:56;;;;;;;3.05;1.42;;;;;;;9.47;92.00;98409.00;10259152;28;20522;-66
2021/01/29 03:21:13;;;;;;;3.22;2.22;;;;;;;9.50;92.58;98398.06;10261353;28;20062;-67
2021/01/29 03:26:21;;;;;;;3.67;1.33;;;;;;;9.47;92.68;98377.13;10255324;28;20062;-67
2021/01/29 03:31:23;;;;;;;4.78;1.75;;;;;;;9.51;93.51;98370.50;10256653;28;20101;-66
2021/01/29 03:36:33;;;;;;;2.45;1.60;;;;;;;9.59;93.52;98359.06;10260627;28;20055;-67
2021/01/29 03:41:44;;;;;;;3.88;1.70;;;;;;;9.57;93.83;98331.84;10255706;28;20521;-67
2021/01/29 03:47:29;;;;;;;2.47;1.70;;;;;;;9.53;94.85;98318.91;10257098;28;20097;-65
2021/01/29 03:52:44;;;;;;;1.95;1.63;;;;;;;9.41;95.34;98285.66;10257952;28;20228;-65
2021/01/29 03:58:01;;;;;;;1.85;1.58;;;;;;;9.56;95.42;98285.84;10270667;28;20043;-66
2021/01/29 04:03:12;;;;;;;3.67;2.15;;;;;;;9.53;96.16;98292.34;10258565;28;20051;-65
2021/01/29 04:08:27;;;;;;;4.78;2.90;;;;;;;9.37;97.19;98257.81;10249953;28;20066;-65
2021/01/29 04:13:53;;;;;;;3.90;3.53;;;;;;;9.41;98.42;98261.75;10258356;28;20071;-65
2021/01/29 04:18:59;;;;;;;5.03;4.40;;;;;;;9.32;98.52;98236.22;10212542;28;20055;-65
2021/01/29 04:24:19;;;;;;;5.82;4.78;;;;;;;9.32;99.83;98214.97;10214563;28;20103;-66
2021/01/29 04:29:47;;;;;;;5.80;5.18;;;;;;;9.38;100.00;98204.53;10251956;28;20149;-66
2021/01/29 04:34:53;;;;;;;6.57;5.80;;;;;;;9.35;100.00;98201.34;10250379;28;20110;-66
2021/01/29 04:40:01;;;;;;;6.10;5.50;;;;;;;9.12;100.00;98146.28;10258174;28;20066;-67
2021/01/29 04:45:27;;;;;;;6.70;5.40;;;;;;;9.45;100.00;98178.13;10259179;28;20450;-66
2021/01/29 04:50:54;;;;;;;5.78;5.15;;;;;;;9.42;100.00;98149.25;10261299;28;20113;-66
2021/01/29 04:56:17;;;;;;;6.25;5.65;;;;;;;9.48;100.00;98140.59;10263295;28;20110;-66
2021/01/29 05:01:47;;;;;;;5.63;5.05;;;;;;;9.54;100.00;98128.50;10261533;28;20050;-66
2021/01/29 05:07:03;;;;;;;5.22;4.72;;;;;;;9.52;100.00;98102.09;10259907;28;20058;-66
2021/01/29 05:12:29;;;;;;;4.68;4.28;;;;;;;9.58;100.00;98083.81;10265418;28;20077;-66
2021/01/29 05:17:48;;;;;;;3.90;3.60;;;;;;;9.61;100.00;98068.38;10266609;28;21746;-66
2021/01/29 05:22:51;;;;;;;3.78;3.47;;;;;;;9.62;100.00;98063.88;10268270;28;20055;-66
2021/01/29 05:28:20;;;;;;;5.20;4.70;;;;;;;9.57;100.00;98045.00;10261597;28;20057;-66
2021/01/29 05:33:59;;;;;;;5.57;5.07;;;;;;;9.65;100.00;98023.69;10261335;28;20577;-66
2021/01/29 05:39:35;;;;;;;6.00;5.40;;;;;;;9.59;100.00;98013.75;10258753;28;20098;-67
2021/01/29 05:45:14;;;;;;;6.28;5.68;;;;;;;9.58;100.00;97985.53;10258403;28;20053;-66
2021/01/29 05:50:43;;;;;;;4.53;4.10;;;;;;;9.59;100.00;97968.63;10269837;28;20114;-67
2021/01/29 05:55:53;;;;;;;3.78;3.47;;;;;;;9.50;100.00;97942.09;10259089;28;20133;-68
2021/01/29 06:01:00;;;;;;;2.63;2.10;;;;;;;9.43;100.00;97905.78;10261353;28;20063;-67
2021/01/29 06:06:10;;;;;;;2.40;2.20;;;;;;;9.62;100.00;97923.13;10270830;28;20103;-68
2021/01/29 06:11:37;;;;;;;2.80;2.00;;;;;;;9.60;100.00;97928.59;10253248;28;20059;-68
2021/01/29 06:17:02;;;;;;;3.58;3.13;;;;;;;9.60;100.00;97904.69;10260699;28;20054;-68
2021/01/29 06:22:11;;;;;;;5.10;3.08;;;;;;;9.61;100.00;97894.88;10252134;28;20055;-68
2021/01/29 06:27:46;;;;;;;3.25;2.95;;;;;;;9.61;100.00;97901.03;10263264;28;20106;-68
2021/01/29 06:32:57;;;;;;;2.55;2.25;;;;;;;9.63;100.00;97893.72;10256070;28;20497;-68
2021/01/29 06:38:16;;;;;;;3.33;2.38;;;;;;;9.64;100.00;97894.56;10258049;28;20073;-68
2021/01/29 06:43:54;;;;;;;3.15;2.95;;;;;;;9.62;100.00;97891.25;10250175;28;20071;-68
2021/01/29 06:49:09;;;;;;;4.00;3.60;;;;;;;9.62;100.00;97885.94;10253161;28;20141;-68
2021/01/29 06:54:50;;;;;;;2.30;2.10;;;;;;;9.61;100.00;97900.19;10255222;28;20070;-66
2021/01/29 07:00:02;;;;;;;1.30;0.60;;;;;;;9.92;97.28;97932.06;10248398;28;20047;-65
2021/01/29 07:05:28;;;;;;;0.52;0.20;;;;;;;10.02;91.14;97934.50;10249188;28;20217;-65
2021/01/29 07:11:09;;;;;;;0.68;0.20;;;;;;;9.83;91.34;97963.19;10249794;28;20060;-64
2021/01/29 07:16:44;;;;;;;0.30;0.20;;;;;;;9.72;90.26;97982.16;10247294;28;20539;-65
2021/01/29 07:21:46;;;;;;;;;;;;;;;9.65;89.82;97991.81;10265815;28;20047;-65
2021/01/29 07:26:53;;;;;;;0.63;0.10;;;;;;;9.56;88.54;98014.94;10247130;28;20012;-64
2021/01/29 07:32:05;;;;;;;1.00;0.10;;;;;;;9.45;89.03;98040.03;10248091;28;20417;-64
2021/01/29 07:37:31;;;;;;;0.10;0.05;;;;;;;9.36;89.45;98028.59;10239642;28;20145;-66
2021/01/29 07:42:45;;;;;;;0.85;0.00;;;;;;;9.34;89.78;98053.69;10242064;28;20133;-65
2021/01/29 07:47:56;;;;;;;;;;;;;;;9.30;89.76;98063.81;10248690;28;20051;-65
2021/01/29 07:53:19;;;;;;;0.30;0.20;;;;;;;9.26;90.56;98062.47;10246063;28;19925;-65
2021/01/29 07:58:37;;;;;;;0.65;0.10;;;;;;;9.15;91.14;98060.19;10248165;28;20186;-65
2021/01/29 08:04:03;;;;;;;0.90;0.40;;;;;;;9.15;92.56;98065.50;10249268;28;20110;-67
2021/01/29 08:09:50;;;;;;;1.10;0.30;;;;;;;9.10;91.80;98060.69;10254875;28;20053;-65
2021/01/29 08:15:21;;;;;;;1.23;0.35;;;;;;;9.16;91.93;98089.22;10240725;28;20197;-65
2021/01/29 08:20:49;;;;;;;0.30;0.17;;;;;;;9.17;91.18;98098.84;10256445;28;20082;-65
2021/01/29 08:26:20;;;;;;;2.63;0.25;;;;;;;9.07;90.71;98098.19;10257927;28;20130;-65
2021/01/29 08:31:42;;;;;;;0.98;0.10;;;;;;;9.04;91.55;98101.16;10256989;28;20146;-64
2021/01/29 08:37:07;;;;;;;2.33;0.30;;;;;;;9.07;91.27;98106.16;10253931;28;20154;-65
2021/01/29 08:42:33;;;;;;;0.80;0.30;;;;;;;8.98;91.43;98107.97;10254687;28;20612;-65
2021/01/29 08:47:38;;;;;;;3.42;0.35;;;;;;;8.95;91.05;98097.69;10269974;28;20434;-66
2021/01/29 08:52:56;;;;;;;2.60;0.20;;;;;;;8.97;91.20;98108.13;10256710;28;20080;-65
2021/01/29 08:58:29;;;;;;;2.08;0.40;;;;;;;8.91;91.13;98100.84;10255348;28;20117;-65
2021/01/29 09:03:39;;;;;;;1.60;0.20;;;;;;;9.00;90.91;98110.44;10257952;28;20576;-65
2021/01/29 09:08:44;;;;;;;1.15;0.10;;;;;;;9.03;90.21;98112.78;10262482;28;20707;-65
2021/01/29 09:13:53;;;;;;;0.70;0.20;;;;;;;9.05;88.80;98121.38;10256608;28;20053;-65
2021/01/29 09:19:01;;;;;;;0.73;0.30;;;;;;;9.15;88.90;98140.63;10252723;28;20656;-65
2021/01/29 09:24:12;;;;;;;0.52;0.20;;;;;;;9.24;88.37;98140.66;10252259;28;20093;-65
2021/01/29 09:29:29;;;;;;;1.15;0.63;;;;;;;9.34;87.89;98149.28;10255124;28;20082;-65
2021/01/29 09:34:42;;;;;;;2.92;0.55;;;;;;;9.34;86.46;98159.91;10256766;28;20197;-65
2021/01/29 09:39:56;;;;;;;4.65;1.40;;;;;;;9.43;84.34;98180.13;10256368;28;20153;-65
2021/01/29 09:45:00;;;;;;;4.38;0.50;;;;;;;9.49;83.13;98174.16;10254253;28;20066;-65
2021/01/29 09:50:08;;;;;;;3.78;0.90;;;;;;;9.58;81.65;98184.75;10256322;28;20058;-66
2021/01/29 09:55:19;;;;;;;2.83;1.13;;;;;;;9.61;80.25;98197.69;10255401;28;20051;-66
2021/01/29 10:00:24;;;;;;;5.00;1.10;;;;;;;9.58;78.97;98192.72;10252644;28;20050;-66
2021/01/29 10:05:34;;;;;;;3.85;0.90;;;;;;;9.76;78.50;98216.44;10252629;28;20429;-66
2021/01/29 10:10:55;;;;;;;6.80;1.00;;;;;;;9.80;75.70;98207.16;10264606;28;20117;-67
2021/01/29 10:16:19;;;;;;;5.75;1.45;;;;;;;9.93;75.59;98214.59;10256844;28;20584;-65
2021/01/29 10:21:37;;;;;;;5.95;1.85;;;;;;;10.04;75.67;98223.06;10250607;28;20043;-65
2021/01/29 10:26:47;;;;;;;6.70;1.85;;;;;;;10.08;74.13;98237.66;10254005;28;20234;-65
2021/01/29 10:32:07;;;;;;;4.65;1.85;;;;;;;10.03;73.20;98239.19;10251808;28;20064;-65
2021/01/29 10:37:40;;;;;;;7.22;2.25;;;;;;;10.02;72.90;98226.88;10248156;28;20051;-65
2021/01/29 10:42:59;;;;;;;7.72;1.95;;;;;;;10.25;71.10;98258.88;10246772;28;20058;-65
2021/01/29 10:48:07;;;;;;;4.82;1.48;;;;;;;10.38;70.68;98248.56;10252257;28;20050;-64
2021/01/29 10:53:14;;;;;;;4.65;1.60;;;;;;;10.85;69.37;98262.84;10253939;28;20106;-64
2021/01/29 10:58:58;;;;;;;12.00;2.45;;;;;;;11.47;65.60;98259.31;10248733;28;20125;-65
2021/01/29 11:04:04;;;;;;;7.70;2.25;;;;;;;12.95;58.76;98256.97;10251393;28;20050;-63
2021/01/29 11:09:13;;;;;;;8.05;2.42;;;;;;;12.98;58.84;98267.25;10251213;28;20232;-64
2021/01/29 11:14:23;;;;;;;6.88;2.13;;;;;;;12.66;59.93;98274.69;10252660;28;20051;-64
2021/01/29 11:19:33;;;;;;;6.05;1.70;;;;;;;12.97;57.94;98278.97;10246647;28;20606;-65
2021/01/29 11:24:45;;;;;;;6.15;1.52;;;;;;;13.45;56.73;98270.50;10246827;28;20101;-65
2021/01/29 11:29:59;;;;;;;7.45;1.77;;;;;;;12.25;59.30;98283.16;10250467;28;20054;-65
2021/01/29 11:35:39;;;;;;;5.43;1.80;;;;;;;11.58;62.53;98302.53;10251108;28;20105;-65
2021/01/29 11:41:00;;;;;;;6.53;1.38;;;;;;;11.11;64.14;98297.16;10250336;28;20046;-65
2021/01/29 11:46:12;;;;;;;6.65;1.70;;;;;;;11.05;65.40;98307.66;10251001;28;20352;-65
2021/01/29 11:51:35;;;;;;;4.18;1.10;;;;;;;10.95;65.00;98298.06;10258911;28;20062;-65
2021/01/29 11:56:56;;;;;;;7.32;1.90;;;;;;;10.93;66.80;98315.22;10259650;28;20054;-65
2021/01/29 12:02:23;;;;;;;5.25;1.48;;;;;;;10.83;67.14;98315.44;10234086;28;20071;-65
2021/01/29 12:07:37;;;;;;;4.68;1.27;;;;;;;10.74;69.81;98311.13;10251682;28;20078;-65
2021/01/29 12:12:49;;;;;;;6.03;1.97;;;;;;;10.76;70.63;98290.50;10255096;28;20111;-65
2021/01/29 12:17:55;;;;;;;5.97;1.30;;;;;;;10.85;69.92;98292.13;10259869;28;20053;-65
2021/01/29 12:23:12;;;;;;;6.00;1.58;;;;;;;10.96;69.34;98288.25;10260845;28;20047;-66
2021/01/29 12:28:29;;;;;;;3.20;1.13;;;;;;;11.03;67.41;98291.03;10265337;28;20449;-66
2021/01/29 12:33:40;;;;;;;5.10;1.55;;;;;;;10.99;67.18;98287.06;10262808;28;20263;-65
2021/01/29 12:38:49;;;;;;;3.17;0.95;;;;;;;11.07;66.35;98279.88;10257013;28;20514;-65
2021/01/29 12:44:19;;;;;;;4.78;1.65;;;;;;;11.17;65.78;98269.00;10254967;28;20055;-66
2021/01/29 12:49:44;;;;;;;5.85;1.00;;;;;;;11.14;66.10;98277.34;10256662;28;20256;-65
2021/01/29 12:54:56;;;;;;;4.30;1.33;;;;;;;11.10;65.00;98263.53;10254723;28;20047;-67
2021/01/29 13:00:10;;;;;;;4.28;0.98;;;;;;;11.28;65.58;98276.56;10257231;28;20082;-66
2021/01/29 13:05:48;;;;;;;5.97;1.92;;;;;;;11.17;65.48;98271.66;10254000;28;20078;-67
2021/01/29 13:11:19;;;;;;;3.92;1.15;;;;;;;10.93;66.09;98278.78;10252769;28;20655;-68
2021/01/29 13:16:38;;;;;;;2.80;0.60;;;;;;;10.71;69.55;98284.88;10237391;28;20055;-67
2021/01/29 13:21:52;;;;;;;3.35;0.57;;;;;;;10.42;71.32;98292.44;10253929;28;20054;-67
2021/01/29 13:26:54;;;;;;;4.05;0.57;;;;;;;10.09;72.36;98286.34;10255775;28;20070;-67
2021/01/29 13:32:07;;;;;;;2.13;0.40;;;;;;;10.05;72.56;98300.97;10255719;28;20058;-67
2021/01/29 13:37:17;;;;;;;1.75;0.30;;;;;;;9.67;75.41;98300.66;10252362;28;20141;-67
2021/01/29 13:42:29;;;;;;;1.33;0.30;;;;;;;9.49;78.04;98314.91;10251252;28;20055;-67
2021/01/29 13:47:32;;;;;;;1.40;0.32;;;;;;;9.43;77.96;98307.59;10250929;28;20552;-66
2021/01/29 13:52:36;;;;;;;0.70;0.30;;;;;;;9.31;78.62;98303.59;10251507;28;20532;-66
2021/01/29 13:57:43;;;;;;;0.77;0.30;;;;;;;9.53;79.65;98312.75;10248541;28;20360;-66
2021/01/29 14:03:26;;;;;;;2.42;0.20;;;;;;;9.83;76.43;98305.97;10252034;28;20105;-67
2021/01/29 14:08:28;;;;;;;2.33;0.80;;;;;;;9.95;76.86;98300.31;10249288;28;20118;-66
2021/01/29 14:13:51;;;;;;;1.70;0.85;;;;;;;9.89;77.51;98318.59;10245418;28;20141;-66
2021/01/29 14:19:19;;;;;;;3.25;0.50;;;;;;;10.03;77.42;98301.13;10248848;28;20062;-66
2021/01/29 14:24:36;;;;;;;3.55;0.60;;;;;;;10.25;75.91;98306.75;10263345;28;20046;-66
2021/01/29 14:29:40;;;;;;;2.30;0.60;;;;;;;10.16;76.59;98297.94;10274615;28;20081;-66
2021/01/29 14:34:47;;;;;;;2.13;0.52;;;;;;;10.05;77.12;98277.84;10253057;28;20054;-66
2021/01/29 14:39:55;;;;;;;2.92;0.60;;;;;;;9.92;77.46;98280.19;10250741;28;20618;-65
2021/01/29 14:45:14;;;;;;;1.75;0.70;;;;;;;9.91;77.51;98263.44;10252682;28;20541;-66
2021/01/29 14:50:15;;;;;;;3.40;1.08;;;;;;;10.08;76.93;98271.38;10254724;28;20042;-65
2021/01/29 14:55:26;;;;;;;4.53;1.08;;;;;;;10.02;77.26;98269.41;10252085;28;20414;-66
2021/01/29 15:00:39;;;;;;;3.28;1.23;;;;;;;10.19;77.56;98276.38;10248056;28;20050;-65
2021/01/29 15:05:43;;;;;;;5.18;2.35;;;;;;;10.33;76.19;98274.84;10249889;28;20050;-66
2021/01/29 15:10:47;;;;;;;2.75;1.13;;;;;;;11.05;73.40;98286.38;10250509;28;20134;-67
2021/01/29 15:15:49;;;;;;;3.92;1.95;;;;;;;10.76;75.62;98282.50;10250743;28;20142;-66
2021/01/29 15:21:31;;;;;;;3.53;1.05;;;;;;;10.71;75.55;98285.69;10248190;28;20521;-66
2021/01/29 15:26:32;;;;;;;2.83;1.25;;;;;;;10.70;76.07;98288.53;10249164;28;20062;-67
2021/01/29 15:31:44;;;;;;;7.13;1.73;;;;;;;10.56;74.96;98288.25;10247121;28;20138;-66
2021/01/29 15:36:52;;;;;;;3.08;1.30;;;;;;;10.51;74.43;98295.91;10248778;28;20042;-66
2021/01/29 15:41:55;;;;;;;4.03;1.05;;;;;;;10.42;72.00;98297.75;10246534;28;20163;-66
2021/01/29 15:46:57;;;;;;;3.00;1.10;;;;;;;10.33;71.86;98274.84;10250412;28;20529;-66
2021/01/29 15:52:03;;;;;;;2.63;1.10;;;;;;;10.19;70.41;98281.69;10257458;28;20055;-67
2021/01/29 15:57:18;;;;;;;3.78;1.45;;;;;;;10.10;70.70;98287.97;10248142;28;20053;-66
2021/01/29 16:02:38;;;;;;;3.78;1.10;;;;;;;10.15;71.97;98288.31;10248717;28;20098;-67
2021/01/29 16:07:40;;;;;;;5.68;1.30;;;;;;;10.02;71.17;98311.94;10243168;28;20054;-67
2021/01/29 16:12:45;;;;;;;4.13;1.15;;;;;;;10.09;73.24;98312.94;10248132;28;20585;-66
2021/01/29 16:17:50;;;;;;;3.40;1.23;;;;;;;10.13;75.30;98314.22;10248932;28;20059;-66
2021/01/29 16:23:02;;;;;;;4.07;1.50;;;;;;;10.02;75.39;98312.75;10248411;28;20541;-65
2021/01/29 16:28:11;;;;;;;3.55;1.35;;;;;;;9.89;74.48;98313.28;10249110;28;20482;-69
2021/01/29 16:33:16;;;;;;;3.65;1.45;;;;;;;9.90;72.18;98306.13;10252102;28;20093;-65
2021/01/29 16:38:34;;;;;;;3.13;1.42;;;;;;;9.89;71.10;98329.22;10266044;28;20597;-65
2021/01/29 16:43:35;;;;;;;2.67;1.10;;;;;;;9.84;72.72;98320.91;10258020;28;20186;-65
2021/01/29 16:48:37;;;;;;;3.70;1.17;;;;;;;9.74;72.57;98306.94;10253784;28;20794;-66
2021/01/29 16:53:40;;;;;;;3.05;1.05;;;;;;;9.68;70.55;98310.25;10257675;28;20183;-64
2021/01/29 16:58:50;;;;;;;3.72;1.05;;;;;;;9.71;70.70;98325.88;10255953;28;20763;-66
2021/01/29 17:03:57;;;;;;;3.97;1.00;;;;;;;9.80;68.87;98311.59;10254686;28;20109;-67
2021/01/29 17:09:11;;;;;;;3.92;0.90;;;;;;;9.63;69.46;98312.59;10254460;28;20125;-66
2021/01/29 17:14:24;;;;;;;2.47;0.60;;;;;;;9.55;70.46;98321.41;10254803;28;20043;-65
2021/01/29 17:19:32;;;;;;;2.70;0.90;;;;;;;9.45;70.72;98318.06;10253045;28;20501;-65
2021/01/29 17:24:47;;;;;;;2.72;0.75;;;;;;;9.51;71.10;98331.50;10277145;23;20086;-73
2021/01/29 17:29:55;;;;;;;1.50;0.52;;;;;;;9.37;70.40;98338.28;10229903;28;21189;-72
2021/01/29 17:35:00;;;;;;;1.55;0.40;;;;;;;9.26;71.50;98321.81;10252693;28;20065;-72
2021/01/29 17:40:22;;;;;;;1.15;0.43;;;;;;;9.23;71.19;98333.59;10260888;28;20498;-71
2021/01/29 17:45:26;;;;;;;3.25;0.82;;;;;;;9.09;71.62;98339.53;10233537;28;20055;-73
2021/01/29 17:50:48;;;;;;;1.13;0.40;;;;;;;8.90;71.28;98336.13;10239311;28;20055;-73
2021/01/29 17:55:49;;;;;;;1.58;0.60;;;;;;;8.84;72.17;98337.63;10259020;28;20124;-74
2021/01/29 18:00:57;;;;;;;2.42;0.77;;;;;;;8.66;72.49;98331.56;10238553;28;20051;-74
2021/01/29 18:06:06;;;;;;;1.88;0.40;;;;;;;8.48;72.60;98328.97;10239473;28;20138;-72
2021/01/29 18:11:23;;;;;;;1.20;0.70;;;;;;;8.51;73.19;98357.00;10238496;28;20534;-74
2021/01/29 18:16:34;;;;;;;2.47;0.60;;;;;;;8.42;73.22;98375.50;10278281;28;20117;-74
2021/01/29 18:21:41;;;;;;;1.88;0.73;;;;;;;8.41;73.54;98375.66;10241841;28;20516;-73
2021/01/29 18:26:44;;;;;;;1.10;0.50;;;;;;;8.49;73.61;98388.97;10247141;28;20113;-73
2021/01/29 18:31:46;;;;;;;2.13;0.43;;;;;;;8.44;73.71;98391.28;10226020;28;20051;-71
2021/01/29 18:36:47;;;;;;;1.25;0.63;;;;;;;8.52;73.20;98398.44;10220569;28;20078;-72
2021/01/29 18:41:51;;;;;;;1.40;0.90;;;;;;;8.48;73.87;98405.88;10216169;28;20054;-73
2021/01/29 18:46:52;;;;;;;1.95;0.80;;;;;;;8.35;73.56;98395.66;10230973;28;20706;-73
2021/01/29 18:51:53;;;;;;;2.45;0.73;;;;;;;8.42;73.62;98407.31;10217370;28;20138;-72
2021/01/29 18:56:55;;;;;;;2.00;0.73;;;;;;;8.39;74.25;98414.72;10217904;28;20058;-74
2021/01/29 19:01:58;;;;;;;1.30;1.00;;;;;;;8.32;73.93;98414.53;10222609;28;20098;-72
2021/01/29 19:06:59;;;;;;;1.35;0.60;;;;;;;8.34;74.53;98417.84;10273505;28;20062;-72
2021/01/29 19:12:01;;;;;;;1.45;0.50;;;;;;;8.37;74.07;98420.19;10284657;28;20054;-72
2021/01/29 19:17:02;;;;;;;1.85;0.70;;;;;;;8.33;74.01;98424.13;10273472;28;20648;-73
2021/01/29 19:22:04;;;;;;;1.45;0.40;;;;;;;8.45;73.66;98427.41;10306471;28;20058;-73
2021/01/29 19:27:06;;;;;;;1.10;0.60;;;;;;;8.44;74.18;98433.72;10314183;28;20042;-73
2021/01/29 19:32:07;;;;;;;2.85;0.70;;;;;;;8.55;73.92;98437.91;10281018;28;20055;-72
2021/01/29 19:37:09;;;;;;;1.45;0.73;;;;;;;8.52;74.38;98443.53;10253186;28;20470;-73
2021/01/29 19:42:10;;;;;;;1.23;0.60;;;;;;;8.60;74.01;98438.28;10220420;28;20079;-70
2021/01/29 19:47:13;;;;;;;3.63;1.23;;;;;;;8.68;74.06;98438.34;10224711;28;20052;-72
2021/01/29 19:52:15;;;;;;;2.00;0.82;;;;;;;8.75;74.06;98450.00;10220843;28;20047;-71
2021/01/29 19:57:17;;;;;;;2.90;1.10;;;;;;;8.70;74.73;98462.88;10213405;28;20259;-72
2021/01/29 20:02:18;;;;;;;2.10;0.80;;;;;;;8.66;75.45;98459.72;10214384;28;20146;-71
2021/01/29 20:07:19;;;;;;;2.45;0.80;;;;;;;8.56;77.04;98466.13;10220418;28;20590;-73
2021/01/29 20:12:21;;;;;;;1.70;0.68;;;;;;;8.55;78.02;98453.84;10227783;28;20066;-73
2021/01/29 20:17:24;;;;;;;2.22;1.27;;;;;;;8.49;79.49;98471.19;10224176;28;20603;-73
2021/01/29 20:22:27;;;;;;;2.35;0.88;;;;;;;8.43;79.91;98467.28;10225150;28;20051;-74
2021/01/29 20:27:28;;;;;;;4.45;2.40;;;;;;;8.41;80.51;98461.31;10223874;28;20063;-72
2021/01/29 20:32:29;;;;;;;4.65;1.33;;;;;;;8.52;80.91;98491.28;10221025;28;20062;-70
2021/01/29 20:37:31;;;;;;;4.03;0.90;;;;;;;8.48;80.84;98483.63;10227665;28;20070;-73
2021/01/29 20:42:33;;;;;;;2.83;1.20;;;;;;;8.46;81.17;98498.84;10231561;28;20055;-72
2021/01/29 20:47:40;;;;;;;1.58;1.15;;;;;;;8.49;80.79;98485.25;10227962;28;20051;-72
2021/01/29 20:52:42;;;;;;;2.28;1.30;;;;;;;8.53;80.80;98484.97;10226253;28;20059;-73
2021/01/29 20:57:45;;;;;;;3.53;1.23;;;;;;;8.59;80.68;98479.06;10220206;28;20051;-74
2021/01/29 21:02:55;;;;;;;4.07;2.03;;;;;;;8.47;80.89;98484.59;10224066;28;20615;-74
2021/01/29 21:07:57;;;;;;;2.83;1.20;;;;;;;8.40;81.66;98495.94;10220569;28;20102;-73
2021/01/29 21:12:59;;;;;;;3.88;1.67;;;;;;;8.40;81.65;98507.38;10225047;28;20074;-72
2021/01/29 21:18:01;;;;;;;2.08;1.38;;;;;;;8.47;81.21;98497.84;10229683;28;20051;-73
2021/01/29 21:23:03;;;;;;;3.47;0.85;;;;;;;8.54;80.42;98523.75;10218152;28;20044;-73
2021/01/29 21:28:06;;;;;;;2.53;1.23;;;;;;;8.50;80.66;98525.91;10228011;28;20138;-74
2021/01/29 21:33:11;;;;;;;3.60;1.05;;;;;;;8.48;80.71;98525.19;10220121;28;20576;-72
2021/01/29 21:38:18;;;;;;;1.60;0.70;;;;;;;8.49;81.26;98527.69;10232465;28;20055;-71
2021/01/29 21:43:21;;;;;;;1.95;1.00;;;;;;;8.56;81.54;98543.03;10261151;28;20054;-71
2021/01/29 21:48:33;;;;;;;2.53;1.40;;;;;;;8.53;81.37;98545.94;10296557;28;20144;-70
2021/01/29 21:53:35;;;;;;;1.88;1.10;;;;;;;8.45;81.84;98542.25;10267018;28;20051;-70
2021/01/29 21:58:39;;;;;;;3.00;0.88;;;;;;;8.49;81.73;98538.31;10225943;28;20095;-71
2021/01/29 22:03:40;;;;;;;2.22;0.60;;;;;;;8.46;81.97;98533.31;10233881;28;20051;-71
2021/01/29 22:08:42;;;;;;;3.90;1.05;;;;;;;8.58;81.27;98519.81;10242579;28;21081;-71
2021/01/29 22:13:44;;;;;;;3.40;2.05;;;;;;;8.57;81.20;98510.19;10217621;28;20063;-72
2021/01/29 22:18:48;;;;;;;2.08;1.15;;;;;;;8.47;81.53;98508.47;10218407;28;20067;-72
2021/01/29 22:23:50;;;;;;;1.42;0.80;;;;;;;8.48;81.56;98494.22;10276728;28;20043;-71
2021/01/29 22:28:52;;;;;;;2.15;0.75;;;;;;;8.31;81.31;98492.38;10237078;28;20056;-71
2021/01/29 22:33:53;;;;;;;2.92;1.05;;;;;;;8.44;80.27;98495.50;10218297;28;20074;-72
2021/01/29 22:38:54;;;;;;;1.20;0.60;;;;;;;8.35;79.20;98507.00;10220805;28;20043;-71
2021/01/29 22:43:55;;;;;;;1.80;0.70;;;;;;;8.31;77.89;98498.50;10224853;28;20047;-71
2021/01/29 22:48:57;;;;;;;1.98;0.73;;;;;;;8.25;76.86;98490.34;10224797;28;20134;-72
2021/01/29 22:53:59;;;;;;;1.77;0.95;;;;;;;8.30;76.65;98506.59;10229333;28;20118;-72
2021/01/29 22:59:00;;;;;;;1.67;0.60;;;;;;;8.34;75.28;98518.59;10228682;28;20592;-70
2021/01/29 23:04:02;;;;;;;1.95;0.88;;;;;;;8.40;74.27;98517.97;10222985;28;20105;-72
2021/01/29 23:09:09;;;;;;;3.33;1.20;;;;;;;8.47;74.25;98534.97;10228967;28;20172;-71
2021/01/29 23:14:10;;;;;;;1.75;1.02;;;;;;;8.48;73.59;98523.41;10221910;28;20055;-70
2021/01/29 23:19:11;;;;;;;2.63;1.10;;;;;;;8.59;73.44;98534.75;10231467;28;20059;-71
2021/01/29 23:24:12;;;;;;;1.63;0.80;;;;;;;8.58;72.33;98525.13;10217225;28;20055;-71
2021/01/29 23:29:14;;;;;;;2.10;1.50;;;;;;;8.53;72.14;98522.09;10217020;28;20086;-72
2021/01/29 23:34:15;;;;;;;4.03;1.05;;;;;;;8.51;71.94;98529.38;10229140;28;20047;-70
2021/01/29 23:39:16;;;;;;;2.60;1.00;;;;;;;8.49;71.89;98527.69;10218527;28;20039;-72
2021/01/29 23:44:21;;;;;;;2.78;1.10;;;;;;;8.49;72.09;98533.00;10214033;28;20043;-71
2021/01/29 23:49:23;;;;;;;;;;;;;;;8.45;71.94;98526.34;10229538;28;20047;-71
2021/01/29 23:54:26;;;;;;;3.63;0.90;;;;;;;8.44;72.16;98529.97;10223421;28;19927;-70
2021/01/29 23:59:27;;;;;;;2.67;1.02;;;;;;;8.34;72.43;98539.78;10221285;28;20521;-70
